Time;durP1;ratioP1;P1;durP2;ratioP2;P2;SDS_P1;SDS_P2;PMS_P1;PMS_P2;Temp;Humidity;BMP_temperature;BMP_pressure;BME280_temperature;BME280_humidity;BME280_pressure;Samples;Min_cycle;Max_cycle;Signal;HPM_P1;HPM_P2
2023/04/10 00:00:20;;;;;;;29.63;17.50;;;6.50;99.90;;;;;;4971346;28;20202;-51
2023/04/10 00:02:48;;;;;;;26.17;17.23;;;6.50;99.90;;;;;;4975710;28;20232;-51
2023/04/10 00:05:16;;;;;;;28.13;16.33;;;6.50;99.90;;;;;;4955028;28;20835;-52
2023/04/10 00:07:43;;;;;;;22.80;16.17;;;6.50;99.90;;;;;;4984167;28;20221;-51
2023/04/10 00:10:10;;;;;;;25.80;17.37;;;6.40;99.90;;;;;;4972581;28;20206;-52
2023/04/10 00:12:37;;;;;;;27.50;17.23;;;6.40;99.90;;;;;;4976759;28;20228;-54
2023/04/10 00:15:05;;;;;;;29.23;17.60;;;6.40;99.90;;;;;;4979697;28;20721;-55
2023/04/10 00:17:32;;;;;;;28.40;17.70;;;6.40;99.90;;;;;;4960311;28;20197;-56
2023/04/10 00:19:59;;;;;;;27.40;17.43;;;6.40;99.90;;;;;;4956127;28;20445;-52
2023/04/10 00:22:27;;;;;;;29.53;18.37;;;6.40;99.90;;;;;;4977797;28;20213;-53
2023/04/10 00:24:54;;;;;;;26.47;16.67;;;6.40;99.90;;;;;;4974467;28;20203;-49
2023/04/10 00:27:21;;;;;;;28.47;17.50;;;6.40;99.90;;;;;;4982859;28;20270;-54
2023/04/10 00:29:57;;;;;;;27.60;17.27;;;6.40;99.90;;;;;;4975879;28;20562;-51
2023/04/10 00:32:25;;;;;;;27.30;17.53;;;6.40;99.90;;;;;;4953417;28;20204;-57
2023/04/10 00:34:52;;;;;;;27.90;16.67;;;6.40;99.90;;;;;;4932289;28;20205;-50
2023/04/10 00:37:19;;;;;;;25.57;17.23;;;6.30;99.90;;;;;;4983030;28;20211;-49
2023/04/10 00:39:47;;;;;;;26.70;17.03;;;6.30;99.90;;;;;;4954758;28;20212;-52
2023/04/10 00:42:14;;;;;;;27.00;17.50;;;6.30;99.90;;;;;;4982794;28;20209;-47
2023/04/10 00:44:41;;;;;;;26.37;18.33;;;6.30;99.90;;;;;;4962273;28;20209;-48
2023/04/10 00:47:08;;;;;;;29.67;18.23;;;6.30;99.90;;;;;;4967821;28;20217;-54
2023/04/10 00:49:35;;;;;;;22.87;16.93;;;6.30;99.90;;;;;;4956448;28;20224;-56
2023/04/10 00:52:02;;;;;;;26.63;17.63;;;6.30;99.90;;;;;;4978667;28;20205;-48
2023/04/10 00:54:30;;;;;;;26.50;18.07;;;6.30;99.90;;;;;;4960837;28;20233;-56
2023/04/10 00:56:58;;;;;;;27.87;17.47;;;6.30;99.90;;;;;;4960311;28;20192;-52
2023/04/10 00:59:25;;;;;;;26.53;17.20;;;6.30;99.90;;;;;;4981122;28;20208;-56
2023/04/10 01:01:53;;;;;;;28.80;17.37;;;6.30;99.90;;;;;;4968179;28;20231;-53
2023/04/10 01:04:21;;;;;;;30.40;17.33;;;6.30;99.90;;;;;;4970023;28;21890;-55
2023/04/10 01:06:59;;;;;;;28.73;17.60;;;6.30;99.90;;;;;;4961879;28;20210;-54
2023/04/10 01:09:35;;;;;;;29.83;17.87;;;6.30;99.90;;;;;;4978601;28;20264;-54
2023/04/10 01:12:14;;;;;;;27.80;17.97;;;6.30;99.90;;;;;;4972359;28;20576;-51
2023/04/10 01:14:50;;;;;;;32.43;19.17;;;6.30;99.90;;;;;;4974602;28;20964;-52
2023/04/10 01:17:21;;;;;;;25.97;17.13;;;6.30;99.90;;;;;;4980163;28;20224;-53
2023/04/10 01:20:01;;;;;;;31.00;17.93;;;6.30;99.90;;;;;;4969061;28;20216;-53
2023/04/10 01:22:35;;;;;;;28.60;17.70;;;6.30;99.90;;;;;;4968804;28;20217;-56
2023/04/10 01:25:24;;;;;;;30.00;17.77;;;6.30;99.90;;;;;;5005014;28;20567;-48
2023/04/10 01:28:06;;;;;;;25.17;16.27;;;6.30;99.90;;;;;;4965980;28;20360;-51
2023/04/10 01:30:36;;;;;;;28.23;17.40;;;6.30;99.90;;;;;;4977621;28;21010;-55
2023/04/10 01:33:09;;;;;;;28.53;17.57;;;6.30;99.90;;;;;;4981094;28;20232;-51
2023/04/10 01:35:38;;;;;;;28.33;17.40;;;6.40;99.90;;;;;;4976968;28;20212;-52
2023/04/10 01:38:06;;;;;;;26.33;18.13;;;6.40;99.90;;;;;;5001580;28;20196;-48
2023/04/10 01:40:36;;;;;;;32.70;18.53;;;6.40;99.90;;;;;;5015702;28;20311;-56
2023/04/10 01:43:07;;;;;;;27.83;18.07;;;6.40;99.90;;;;;;4991145;28;20295;-52
2023/04/10 01:45:46;;;;;;;27.57;17.67;;;6.40;99.90;;;;;;5014589;28;20268;-51
2023/04/10 01:48:15;;;;;;;26.70;18.20;;;6.40;99.90;;;;;;5005510;28;20221;-50
2023/04/10 01:50:43;;;;;;;28.87;17.20;;;6.40;99.90;;;;;;4995274;28;20302;-51
2023/04/10 01:53:10;;;;;;;29.37;18.17;;;6.40;99.90;;;;;;4968915;28;20232;-49
2023/04/10 01:55:38;;;;;;;30.93;18.43;;;6.40;99.90;;;;;;4995324;28;20189;-52
2023/04/10 01:58:07;;;;;;;28.17;17.60;;;6.40;99.90;;;;;;4973098;28;20407;-48
2023/04/10 02:00:38;;;;;;;27.77;17.60;;;6.30;99.90;;;;;;4983813;28;20201;-54
2023/04/10 02:03:06;;;;;;;31.10;17.57;;;6.30;99.90;;;;;;4987803;28;20232;-52
2023/04/10 02:05:43;;;;;;;26.53;18.13;;;6.30;99.90;;;;;;4986462;28;20208;-48
2023/04/10 02:08:15;;;;;;;26.63;17.63;;;6.30;99.90;;;;;;4966169;28;20994;-54
2023/04/10 02:10:48;;;;;;;30.17;18.23;;;6.30;99.90;;;;;;4995094;28;20207;-53
2023/04/10 02:13:20;;;;;;;26.87;17.13;;;6.30;99.90;;;;;;4989205;28;20524;-51
2023/04/10 02:15:51;;;;;;;24.93;17.67;;;6.30;99.90;;;;;;4985452;28;20197;-55
2023/04/10 02:18:21;;;;;;;29.87;17.40;;;6.30;99.90;;;;;;4985780;28;20947;-50
2023/04/10 02:20:49;;;;;;;27.60;16.73;;;6.30;99.90;;;;;;4983321;28;20700;-55
2023/04/10 02:23:19;;;;;;;28.77;18.07;;;6.30;99.90;;;;;;4979624;28;20239;-52
2023/04/10 02:25:46;;;;;;;29.97;17.57;;;6.30;99.90;;;;;;4997070;28;20195;-53
2023/04/10 02:28:13;;;;;;;30.57;18.40;;;6.30;99.90;;;;;;5000984;28;20215;-49
2023/04/10 02:30:40;;;;;;;27.67;16.53;;;6.20;99.90;;;;;;4979601;28;20208;-49
2023/04/10 02:33:06;;;;;;;26.27;17.47;;;6.20;99.90;;;;;;4982579;28;20827;-49
2023/04/10 02:35:34;;;;;;;30.40;17.77;;;6.20;99.90;;;;;;4986801;28;20738;-49
2023/04/10 02:38:03;;;;;;;31.23;17.33;;;6.20;99.90;;;;;;4979459;28;20861;-55
2023/04/10 02:40:36;;;;;;;29.70;18.67;;;6.20;99.90;;;;;;4977338;28;20197;-52
2023/04/10 02:43:14;;;;;;;25.40;16.90;;;6.20;99.90;;;;;;4983840;28;20220;-52
2023/04/10 02:45:41;;;;;;;28.80;18.00;;;6.20;99.90;;;;;;5000404;28;20291;-51
2023/04/10 02:48:10;;;;;;;26.73;17.73;;;6.20;99.90;;;;;;4982140;28;20205;-52
2023/04/10 02:50:39;;;;;;;24.73;17.30;;;6.10;99.90;;;;;;4988719;28;20600;-51
2023/04/10 02:53:07;;;;;;;29.20;17.30;;;6.10;99.90;;;;;;4997800;28;20235;-49
2023/04/10 02:55:33;;;;;;;30.67;17.53;;;6.10;99.90;;;;;;4958994;28;20307;-47
2023/04/10 02:58:00;;;;;;;28.80;17.97;;;6.10;99.90;;;;;;4980398;28;20193;-54
2023/04/10 03:00:27;;;;;;;31.70;19.03;;;6.10;99.90;;;;;;4987668;28;20595;-52
2023/04/10 03:03:08;;;;;;;33.33;17.97;;;6.10;99.90;;;;;;4996215;28;20239;-53
2023/04/10 03:05:48;;;;;;;28.60;18.70;;;6.00;99.90;;;;;;4971022;28;20215;-52
2023/04/10 03:08:17;;;;;;;28.23;17.17;;;6.00;99.90;;;;;;4983894;28;20299;-51
2023/04/10 03:10:45;;;;;;;31.07;19.00;;;6.00;99.90;;;;;;4969406;28;20204;-49
2023/04/10 03:13:12;;;;;;;30.83;18.57;;;6.00;99.90;;;;;;4997881;28;20254;-49
2023/04/10 03:15:39;;;;;;;29.47;17.93;;;6.00;99.90;;;;;;4974316;28;20205;-50
2023/04/10 03:18:07;;;;;;;28.83;17.77;;;6.00;99.90;;;;;;4977346;28;20223;-53
2023/04/10 03:20:36;;;;;;;33.80;18.70;;;6.00;99.90;;;;;;4989853;28;20204;-56
2023/04/10 03:23:04;;;;;;;33.33;18.50;;;6.00;99.90;;;;;;4984580;28;20236;-52
2023/04/10 03:25:34;;;;;;;30.53;17.87;;;6.00;99.90;;;;;;4967808;28;20197;-56
2023/04/10 03:28:02;;;;;;;29.13;18.17;;;6.00;99.90;;;;;;4985530;28;20220;-51
2023/04/10 03:30:29;;;;;;;29.93;18.60;;;5.90;99.90;;;;;;4977320;28;20193;-56
2023/04/10 03:32:56;;;;;;;28.60;17.77;;;5.90;99.90;;;;;;4982750;28;20316;-51
2023/04/10 03:35:23;;;;;;;29.67;18.30;;;5.90;99.90;;;;;;4981247;28;20204;-53
2023/04/10 03:37:50;;;;;;;26.97;18.23;;;5.90;99.90;;;;;;4995078;28;20188;-50
2023/04/10 03:40:19;;;;;;;28.03;18.53;;;5.90;99.90;;;;;;5000974;28;20271;-55
2023/04/10 03:42:46;;;;;;;27.17;17.37;;;5.90;99.90;;;;;;4969761;28;20302;-48
2023/04/10 03:45:14;;;;;;;29.93;18.37;;;5.90;99.90;;;;;;4981429;28;20201;-53
2023/04/10 03:47:41;;;;;;;31.57;18.13;;;5.90;99.90;;;;;;4997144;28;20196;-48
2023/04/10 03:50:10;;;;;;;28.33;17.07;;;5.90;99.90;;;;;;4982968;28;20201;-50
2023/04/10 03:52:45;;;;;;;27.50;17.47;;;5.90;99.90;;;;;;4987387;28;21476;-50
2023/04/10 03:55:17;;;;;;;29.23;18.70;;;5.90;99.90;;;;;;4992586;28;20212;-53
2023/04/10 03:57:47;;;;;;;30.70;18.57;;;5.90;99.90;;;;;;4949839;28;20425;-51
2023/04/10 04:00:17;;;;;;;30.97;17.10;;;5.90;99.90;;;;;;4982776;28;20197;-54
2023/04/10 04:02:49;;;;;;;24.20;16.70;;;5.90;99.90;;;;;;4991934;28;20944;-47
2023/04/10 04:05:34;;;;;;;30.53;18.60;;;5.90;99.90;;;;;;4997147;28;20203;-54
2023/04/10 04:08:20;;;;;;;29.20;18.20;;;5.90;99.90;;;;;;4990755;28;20227;-53
2023/04/10 04:11:06;;;;;;;28.13;18.17;;;5.90;99.90;;;;;;5002792;28;20287;-53
2023/04/10 04:13:53;;;;;;;29.90;17.37;;;5.80;99.90;;;;;;4954837;28;20323;-50
2023/04/10 04:16:32;;;;;;;28.67;17.77;;;5.90;99.90;;;;;;5012123;28;20347;-53
2023/04/10 04:19:12;;;;;;;31.27;18.97;;;5.80;99.90;;;;;;4977289;28;21344;-52
2023/04/10 04:21:50;;;;;;;28.30;17.13;;;5.80;99.90;;;;;;4995238;28;20307;-47
2023/04/10 04:24:36;;;;;;;30.37;17.73;;;5.80;99.90;;;;;;5007436;28;20231;-49
2023/04/10 04:27:14;;;;;;;25.47;17.40;;;5.80;99.90;;;;;;4998321;28;20250;-50
2023/04/10 04:29:55;;;;;;;28.00;17.30;;;5.80;99.90;;;;;;4987479;28;20225;-47
2023/04/10 04:32:40;;;;;;;27.83;17.63;;;5.80;99.90;;;;;;4974346;28;20195;-50
2023/04/10 04:35:37;;;;;;;27.00;17.27;;;5.80;99.90;;;;;;4980333;28;20831;-47
2023/04/10 04:38:15;;;;;;;27.30;17.23;;;5.80;99.90;;;;;;4999929;28;20180;-47
2023/04/10 04:40:59;;;;;;;33.20;18.83;;;5.70;99.90;;;;;;5015780;28;20204;-47
2023/04/10 04:43:40;;;;;;;27.13;17.93;;;5.70;99.90;;;;;;4993434;28;22060;-49
2023/04/10 04:46:22;;;;;;;27.23;17.53;;;5.70;99.90;;;;;;4986298;28;20223;-56
2023/04/10 04:49:05;;;;;;;30.43;18.97;;;5.70;99.90;;;;;;4995950;28;20209;-48
2023/04/10 04:51:47;;;;;;;28.57;18.03;;;5.70;99.90;;;;;;5014365;28;20370;-47
2023/04/10 04:54:27;;;;;;;31.60;17.70;;;5.70;99.90;;;;;;4998001;28;20243;-52
2023/04/10 04:57:14;;;;;;;28.63;17.93;;;5.70;99.90;;;;;;4991395;28;20291;-54
2023/04/10 04:59:56;;;;;;;32.20;18.43;;;5.70;99.90;;;;;;4959546;28;20312;-55
2023/04/10 05:02:50;;;;;;;29.60;17.37;;;5.70;99.90;;;;;;4961488;28;20224;-50
2023/04/10 05:05:41;;;;;;;31.43;17.47;;;5.70;99.90;;;;;;4999102;28;20243;-50
2023/04/10 05:08:34;;;;;;;28.43;17.90;;;5.70;99.90;;;;;;4948622;28;20224;-54
2023/04/10 05:11:01;;;;;;;30.07;17.57;;;5.70;99.90;;;;;;4992702;28;20200;-49
2023/04/10 05:13:46;;;;;;;28.13;18.50;;;5.80;99.90;;;;;;4991921;28;20231;-48
2023/04/10 05:16:33;;;;;;;29.47;18.30;;;5.80;99.90;;;;;;4995066;28;20291;-53
2023/04/10 05:19:17;;;;;;;28.17;17.63;;;5.80;99.90;;;;;;4977903;28;20878;-53
2023/04/10 05:22:07;;;;;;;30.40;17.80;;;5.90;99.90;;;;;;4991744;28;20284;-48
2023/04/10 05:24:53;;;;;;;27.47;18.63;;;5.90;99.90;;;;;;4973147;28;20308;-51
2023/04/10 05:27:25;;;;;;;26.93;18.30;;;6.00;99.90;;;;;;4968344;28;20228;-53
2023/04/10 05:30:09;;;;;;;27.43;17.97;;;6.00;99.90;;;;;;4961256;28;20692;-51
2023/04/10 05:32:46;;;;;;;28.47;17.70;;;6.00;99.90;;;;;;4961752;28;20952;-47
2023/04/10 05:35:34;;;;;;;31.50;17.60;;;6.10;99.90;;;;;;4967617;28;20211;-52
2023/04/10 05:38:22;;;;;;;26.97;17.90;;;6.20;99.90;;;;;;4960150;28;20198;-53
2023/04/10 05:40:59;;;;;;;28.60;17.13;;;6.20;99.90;;;;;;4960488;28;20210;-49
2023/04/10 05:43:51;;;;;;;28.33;17.53;;;6.30;99.90;;;;;;4958584;28;20236;-51
2023/04/10 05:46:32;;;;;;;26.03;17.30;;;6.40;99.90;;;;;;4945851;28;20201;-55
2023/04/10 05:49:13;;;;;;;30.03;18.27;;;6.50;99.90;;;;;;4980139;28;20776;-49
2023/04/10 05:52:00;;;;;;;29.40;18.50;;;6.50;99.90;;;;;;4968354;28;20208;-51
2023/04/10 05:54:50;;;;;;;28.87;17.50;;;6.60;99.90;;;;;;4952931;28;20222;-52
2023/04/10 05:57:40;;;;;;;29.83;18.30;;;6.70;99.90;;;;;;4942059;28;20213;-56
2023/04/10 06:00:33;;;;;;;26.47;17.13;;;6.70;99.90;;;;;;4948708;28;20221;-54
2023/04/10 06:03:19;;;;;;;24.73;16.17;;;6.80;99.90;;;;;;4965272;28;20786;-55
2023/04/10 06:05:53;;;;;;;28.27;16.03;;;6.80;99.90;;;;;;4972253;28;20291;-54
2023/04/10 06:08:22;;;;;;;28.40;17.53;;;6.80;99.90;;;;;;4949668;28;20682;-54
2023/04/10 06:10:49;;;;;;;29.97;17.33;;;6.80;99.90;;;;;;4951444;28;20292;-55
2023/04/10 06:13:16;;;;;;;26.70;17.30;;;6.90;99.90;;;;;;4977946;28;20431;-50
2023/04/10 06:15:43;;;;;;;25.30;16.67;;;6.90;99.90;;;;;;4997104;28;20201;-55
2023/04/10 06:18:10;;;;;;;25.67;17.47;;;7.00;99.90;;;;;;4945429;28;20311;-49
2023/04/10 06:20:37;;;;;;;30.50;18.93;;;7.00;99.90;;;;;;4973911;28;20190;-54
2023/04/10 06:23:05;;;;;;;28.83;17.87;;;7.10;99.90;;;;;;4955679;28;20235;-48
2023/04/10 06:25:33;;;;;;;28.53;17.70;;;7.10;99.90;;;;;;4983648;28;20229;-53
2023/04/10 06:28:00;;;;;;;26.03;17.77;;;7.20;99.90;;;;;;4992752;28;20193;-51
2023/04/10 06:30:29;;;;;;;32.33;18.30;;;7.20;99.90;;;;;;4992452;28;20216;-52
2023/04/10 06:32:56;;;;;;;28.93;17.00;;;7.30;99.90;;;;;;4955497;28;20328;-54
2023/04/10 06:35:23;;;;;;;28.73;17.13;;;7.40;99.90;;;;;;4996651;28;20299;-49
2023/04/10 06:37:50;;;;;;;23.63;16.07;;;7.50;99.90;;;;;;4999423;28;20269;-55
2023/04/10 06:40:17;;;;;;;21.07;16.03;;;7.50;99.90;;;;;;5006731;28;20217;-51
2023/04/10 06:42:45;;;;;;;26.33;16.80;;;7.60;99.90;;;;;;4991392;28;20297;-56
2023/04/10 06:45:15;;;;;;;26.93;17.23;;;7.70;99.90;;;;;;4977028;28;20575;-53
2023/04/10 06:47:42;;;;;;;23.83;16.47;;;7.70;99.90;;;;;;4990773;28;20869;-53
2023/04/10 06:50:10;;;;;;;26.40;16.30;;;7.80;99.90;;;;;;4973865;28;20217;-52
2023/04/10 06:52:58;;;;;;;23.73;16.93;;;7.90;99.90;;;;;;4994590;28;20232;-50
2023/04/10 06:55:25;;;;;;;24.63;16.97;;;8.00;99.90;;;;;;5003222;28;20215;-55
2023/04/10 06:57:55;;;;;;;26.90;17.30;;;8.00;99.90;;;;;;4990514;28;20212;-49
2023/04/10 07:00:23;;;;;;;24.80;17.07;;;8.10;99.90;;;;;;4992354;28;20763;-52
2023/04/10 07:02:50;;;;;;;22.47;16.80;;;8.20;99.90;;;;;;4993958;28;20897;-47
2023/04/10 07:05:17;;;;;;;24.77;16.50;;;8.30;99.90;;;;;;4983580;28;20205;-48
2023/04/10 07:07:46;;;;;;;25.43;16.57;;;8.40;99.90;;;;;;4988082;28;20197;-47
2023/04/10 07:10:13;;;;;;;25.03;16.50;;;8.40;99.90;;;;;;4999093;28;20992;-52
2023/04/10 07:12:39;;;;;;;22.13;16.57;;;8.50;99.90;;;;;;4973916;28;20204;-50
2023/04/10 07:15:11;;;;;;;24.80;17.23;;;8.60;99.90;;;;;;4988500;28;20608;-56
2023/04/10 07:17:38;;;;;;;23.77;16.00;;;8.80;99.90;;;;;;4987109;28;20204;-53
2023/04/10 07:20:06;;;;;;;28.30;16.40;;;8.90;99.90;;;;;;4978016;28;20672;-56
2023/04/10 07:22:34;;;;;;;22.73;16.10;;;9.00;99.90;;;;;;4974090;28;20221;-56
2023/04/10 07:25:00;;;;;;;22.57;15.97;;;9.10;99.90;;;;;;4979342;28;20670;-56
2023/04/10 07:27:28;;;;;;;23.40;15.90;;;9.20;99.90;;;;;;4962860;28;20217;-52
2023/04/10 07:29:56;;;;;;;24.57;16.87;;;9.30;99.90;;;;;;4978978;28;20886;-48
2023/04/10 07:32:24;;;;;;;21.77;15.37;;;9.40;99.90;;;;;;4960716;28;20197;-49
2023/04/10 07:34:51;;;;;;;21.00;15.70;;;9.50;99.90;;;;;;4963578;28;20213;-48
2023/04/10 07:37:18;;;;;;;22.00;15.10;;;9.50;99.90;;;;;;4970040;28;20834;-55
2023/04/10 07:39:45;;;;;;;23.50;14.57;;;9.70;99.90;;;;;;4974771;28;20251;-54
2023/04/10 07:42:12;;;;;;;23.10;15.03;;;9.70;99.90;;;;;;4969058;28;20579;-55
2023/04/10 07:44:38;;;;;;;21.30;14.60;;;9.80;99.90;;;;;;4973202;28;20317;-55
2023/04/10 07:47:05;;;;;;;21.67;15.87;;;9.90;99.90;;;;;;4974091;28;20198;-54
2023/04/10 07:49:33;;;;;;;19.67;14.57;;;10.10;99.90;;;;;;4975511;28;20217;-51
2023/04/10 07:52:00;;;;;;;20.07;14.30;;;10.20;99.90;;;;;;4949415;28;20212;-51
2023/04/10 07:54:27;;;;;;;22.13;15.60;;;10.30;99.90;;;;;;4975681;28;20217;-52
2023/04/10 07:56:53;;;;;;;22.17;15.00;;;10.40;99.90;;;;;;4969654;28;20212;-55
2023/04/10 07:59:20;;;;;;;16.63;13.23;;;10.50;99.90;;;;;;4980047;28;20193;-48
2023/04/10 08:01:48;;;;;;;18.43;14.70;;;10.60;99.90;;;;;;4977465;28;20562;-55
2023/04/10 08:04:18;;;;;;;18.73;13.93;;;10.70;99.90;;;;;;4982017;28;20225;-50
2023/04/10 08:06:46;;;;;;;18.97;13.73;;;10.90;99.90;;;;;;4953964;28;20204;-57
2023/04/10 08:09:13;;;;;;;19.27;13.50;;;11.00;99.90;;;;;;4969598;28;21022;-53
2023/04/10 08:11:41;;;;;;;18.63;13.77;;;11.00;99.90;;;;;;4981530;28;20205;-54
2023/04/10 08:14:08;;;;;;;19.93;14.10;;;11.10;99.90;;;;;;4976597;28;20217;-50
2023/04/10 08:16:37;;;;;;;17.93;14.23;;;11.20;99.90;;;;;;4978963;28;20210;-48
2023/04/10 08:19:04;;;;;;;17.93;13.20;;;11.30;99.90;;;;;;4979212;28;20185;-48
2023/04/10 08:21:31;;;;;;;20.70;13.93;;;11.40;99.90;;;;;;4956289;28;20213;-52
2023/04/10 08:24:01;;;;;;;17.90;14.03;;;11.50;99.90;;;;;;4982703;28;20217;-52
2023/04/10 08:26:28;;;;;;;23.77;16.50;;;11.60;99.90;;;;;;5002249;28;20205;-48
2023/04/10 08:28:57;;;;;;;20.60;14.87;;;11.80;99.90;;;;;;4989989;28;20215;-56
2023/04/10 08:31:25;;;;;;;22.43;14.93;;;11.90;99.90;;;;;;4996775;28;20542;-50
2023/04/10 08:33:54;;;;;;;20.17;13.27;;;12.00;99.90;;;;;;4980998;28;20223;-57
2023/04/10 08:36:21;;;;;;;22.10;14.90;;;12.10;99.90;;;;;;4978093;28;20224;-49
2023/04/10 08:38:48;;;;;;;17.40;13.90;;;12.10;99.90;;;;;;4990063;28;20215;-48
2023/04/10 08:41:18;;;;;;;18.03;13.10;;;12.20;99.90;;;;;;4994395;28;20211;-47
2023/04/10 08:43:45;;;;;;;16.30;12.87;;;12.30;99.90;;;;;;4983597;28;20228;-51
2023/04/10 08:46:13;;;;;;;15.07;12.27;;;12.30;99.90;;;;;;4991540;28;20252;-55
2023/04/10 08:48:46;;;;;;;17.00;12.50;;;12.40;99.90;;;;;;4990411;28;20204;-55
2023/04/10 08:51:17;;;;;;;16.87;12.83;;;12.50;99.90;;;;;;4981865;28;20333;-53
2023/04/10 08:53:45;;;;;;;18.23;13.47;;;12.50;99.90;;;;;;4982475;28;20223;-51
2023/04/10 08:56:37;;;;;;;17.80;13.50;;;12.60;99.90;;;;;;4988672;28;20262;-56
2023/04/10 08:59:05;;;;;;;16.37;12.87;;;12.80;99.90;;;;;;4991238;28;20223;-55
2023/04/10 09:01:33;;;;;;;18.47;13.53;;;12.90;99.90;;;;;;4979487;28;21097;-52
2023/04/10 09:04:00;;;;;;;16.13;12.83;;;13.00;99.90;;;;;;4991541;28;20783;-56
2023/04/10 09:06:27;;;;;;;17.90;13.27;;;13.10;99.90;;;;;;4971504;28;20519;-53
2023/04/10 09:08:54;;;;;;;16.37;12.60;;;13.10;99.90;;;;;;4990673;28;20197;-51
2023/04/10 09:11:22;;;;;;;15.50;11.63;;;13.30;99.90;;;;;;4990952;28;20221;-50
2023/04/10 09:13:52;;;;;;;14.30;11.27;;;13.40;99.90;;;;;;4991119;28;20924;-50
2023/04/10 09:16:29;;;;;;;14.90;11.83;;;13.50;99.90;;;;;;4994591;28;20235;-52
2023/04/10 09:18:56;;;;;;;14.43;11.47;;;13.50;99.90;;;;;;4981182;28;22698;-54
2023/04/10 09:21:24;;;;;;;14.73;11.70;;;13.60;99.90;;;;;;4998355;28;20582;-55
2023/04/10 09:24:00;;;;;;;14.43;12.30;;;13.60;99.90;;;;;;4976993;28;20338;-51
2023/04/10 09:26:28;;;;;;;15.03;12.83;;;13.60;99.90;;;;;;4998706;28;20688;-56
2023/04/10 09:29:00;;;;;;;13.67;11.63;;;13.70;99.90;;;;;;4989929;28;20197;-52
2023/04/10 09:31:34;;;;;;;13.13;10.97;;;13.70;99.90;;;;;;4998056;28;20228;-49
2023/04/10 09:34:08;;;;;;;14.47;11.33;;;13.80;99.90;;;;;;4989358;28;20696;-58
2023/04/10 09:36:37;;;;;;;78.80;22.60;;;14.00;99.90;;;;;;4993005;28;20193;-53
2023/04/10 09:39:04;;;;;;;40.17;16.83;;;14.10;99.90;;;;;;4969695;28;20286;-53
2023/04/10 09:41:30;;;;;;;58.73;24.23;;;14.00;99.90;;;;;;5004802;28;20212;-52
2023/04/10 09:44:10;;;;;;;16.37;12.00;;;13.90;99.90;;;;;;4988812;28;20485;-57
2023/04/10 09:46:38;;;;;;;14.73;11.20;;;14.00;99.90;;;;;;4995737;28;20199;-53
2023/04/10 09:49:08;;;;;;;13.53;10.87;;;14.20;99.90;;;;;;4993659;28;20804;-49
2023/04/10 09:51:36;;;;;;;11.70;10.50;;;14.20;99.90;;;;;;5003999;28;20215;-51
2023/04/10 09:54:06;;;;;;;11.97;10.73;;;;;;;;;;4979002;28;20989;-54
2023/04/10 09:56:37;;;;;;;13.07;9.93;;;14.70;99.90;;;;;;5004454;28;20207;-51
2023/04/10 09:59:09;;;;;;;12.47;9.93;;;14.70;99.90;;;;;;4984194;28;20215;-52
2023/04/10 10:01:43;;;;;;;11.47;9.90;;;14.90;99.90;;;;;;4989277;28;20197;-52
2023/04/10 10:04:11;;;;;;;12.47;9.90;;;14.90;99.90;;;;;;4990012;28;20619;-59
2023/04/10 10:06:39;;;;;;;11.63;9.20;;;15.00;99.90;;;;;;4994943;28;20858;-57
2023/04/10 10:09:05;;;;;;;10.90;9.07;;;15.10;99.90;;;;;;4980803;28;20803;-59
2023/04/10 10:11:35;;;;;;;10.27;8.90;;;15.30;99.90;;;;;;4990864;28;20825;-57
2023/04/10 10:14:04;;;;;;;10.73;8.90;;;15.40;99.90;;;;;;4998161;28;20279;-52
2023/04/10 10:16:36;;;;;;;9.90;8.33;;;15.60;99.90;;;;;;4993819;28;20204;-51
2023/04/10 10:19:12;;;;;;;12.17;9.73;;;15.70;99.90;;;;;;5001628;28;20212;-58
2023/04/10 10:21:43;;;;;;;12.47;10.70;;;15.70;99.90;;;;;;4993929;28;20679;-51
2023/04/10 10:24:11;;;;;;;10.30;9.20;;;15.70;99.90;;;;;;4970304;28;20248;-63
2023/04/10 10:26:40;;;;;;;10.63;8.47;;;15.80;99.90;;;;;;4992024;28;20201;-53
2023/04/10 10:29:09;;;;;;;9.13;8.20;;;15.70;99.90;;;;;;4996231;28;20249;-58
2023/04/10 10:31:37;;;;;;;9.00;8.13;;;15.80;99.90;;;;;;5001427;28;20208;-52
2023/04/10 10:34:08;;;;;;;9.17;7.13;;;15.90;98.10;;;;;;4997683;28;20225;-48
2023/04/10 10:36:36;;;;;;;12.20;8.50;;;16.10;97.40;;;;;;4988195;28;20222;-56
2023/04/10 10:39:18;;;;;;;9.90;8.57;;;16.20;97.30;;;;;;4975746;28;20211;-55
2023/04/10 10:41:54;;;;;;;8.43;7.60;;;16.30;97.10;;;;;;4996164;28;20207;-53
2023/04/10 10:44:29;;;;;;;8.93;7.67;;;16.40;96.50;;;;;;4993972;28;20216;-61
2023/04/10 10:47:07;;;;;;;8.53;7.67;;;16.50;95.80;;;;;;5000213;28;20202;-49
2023/04/10 10:49:56;;;;;;;9.20;8.30;;;16.60;95.40;;;;;;4983787;28;20870;-53
2023/04/10 10:52:42;;;;;;;9.47;8.47;;;16.60;95.00;;;;;;4990806;28;20862;-48
2023/04/10 10:55:33;;;;;;;9.37;8.20;;;16.70;93.80;;;;;;4976374;28;20244;-50
2023/04/10 10:58:01;;;;;;;8.83;7.57;;;16.60;93.50;;;;;;4987934;28;20761;-54
2023/04/10 11:01:02;;;;;;;10.10;8.03;;;16.70;94.50;;;;;;4996568;28;20794;-51
2023/04/10 11:03:29;;;;;;;7.87;7.07;;;16.70;93.40;;;;;;4995959;28;20553;-55
2023/04/10 11:06:01;;;;;;;7.40;6.70;;;16.70;94.40;;;;;;4979820;28;20759;-59
2023/04/10 11:08:43;;;;;;;7.97;7.13;;;16.80;91.20;;;;;;4995867;28;20216;-48
2023/04/10 11:11:14;;;;;;;7.43;6.70;;;16.70;89.90;;;;;;4985616;28;20255;-54
2023/04/10 11:13:43;;;;;;;6.43;5.87;;;16.60;90.80;;;;;;4993509;28;20224;-56
2023/04/10 11:16:10;;;;;;;6.37;5.87;;;16.60;90.80;;;;;;4992423;28;20522;-56
2023/04/10 11:19:04;;;;;;;8.17;6.17;;;16.80;90.10;;;;;;4994910;28;20224;-55
2023/04/10 11:21:33;;;;;;;7.47;6.77;;;16.90;89.30;;;;;;4994918;28;20231;-51
2023/04/10 11:24:04;;;;;;;6.50;5.90;;;17.00;89.10;;;;;;4976498;28;20225;-49
2023/04/10 11:26:39;;;;;;;7.10;6.00;;;17.20;92.10;;;;;;4959885;28;21781;-53
2023/04/10 11:29:27;;;;;;;6.30;5.80;;;17.10;97.90;;;;;;4971794;28;20200;-51
2023/04/10 11:31:56;;;;;;;6.97;6.00;;;17.20;87.30;;;;;;4955493;28;20858;-55
2023/04/10 11:34:23;;;;;;;7.47;6.57;;;17.20;86.10;;;;;;4977583;28;20233;-59
2023/04/10 11:36:52;;;;;;;7.83;6.93;;;17.40;96.10;;;;;;4979162;28;20203;-49
2023/04/10 11:39:21;;;;;;;6.70;6.20;;;;;;;;;;4977416;28;20209;-49
2023/04/10 11:41:49;;;;;;;6.87;6.17;;;17.40;99.90;;;;;;4953348;28;20220;-53
2023/04/10 11:44:20;;;;;;;8.77;6.57;;;;;;;;;;4969533;28;20220;-54
2023/04/10 11:46:50;;;;;;;6.03;5.37;;;17.60;99.90;;;;;;4963550;28;20213;-59
2023/04/10 11:49:18;;;;;;;6.80;6.10;;;17.60;99.90;;;;;;4983931;28;20202;-51
2023/04/10 11:51:49;;;;;;;7.13;6.43;;;17.60;99.90;;;;;;4963192;28;20444;-50
2023/04/10 11:54:19;;;;;;;5.63;5.17;;;17.50;99.90;;;;;;4976501;28;20221;-50
2023/04/10 11:56:56;;;;;;;6.47;5.90;;;17.70;99.90;;;;;;4953270;28;20899;-53
2023/04/10 11:59:23;;;;;;;6.77;6.17;;;17.80;81.80;;;;;;4967106;28;20219;-58
2023/04/10 12:01:52;;;;;;;28.90;6.67;;;17.90;82.10;;;;;;4969358;28;20812;-49
2023/04/10 12:04:21;;;;;;;8.77;6.37;;;18.10;81.60;;;;;;4980371;28;20926;-52
2023/04/10 12:06:49;;;;;;;7.43;4.80;;;18.10;81.20;;;;;;4983182;28;20209;-58
2023/04/10 12:09:19;;;;;;;5.70;5.20;;;18.20;78.10;;;;;;4973737;28;20422;-51
2023/04/10 12:11:51;;;;;;;5.70;5.20;;;18.30;77.50;;;;;;4964389;28;20228;-59
2023/04/10 12:14:19;;;;;;;5.40;5.00;;;18.30;76.90;;;;;;4964398;28;20394;-57
2023/04/10 12:16:46;;;;;;;4.77;4.37;;;18.40;75.70;;;;;;4982620;28;20221;-57
2023/04/10 12:19:14;;;;;;;5.00;4.60;;;18.60;89.80;;;;;;4966131;28;20193;-51
2023/04/10 12:21:42;;;;;;;5.23;4.73;;;18.70;79.60;;;;;;4981996;28;20652;-50
2023/04/10 12:24:10;;;;;;;4.53;4.17;;;18.80;80.30;;;;;;4967449;28;20248;-49
2023/04/10 12:26:38;;;;;;;4.90;4.50;;;18.50;73.50;;;;;;4957921;28;20205;-50
2023/04/10 12:29:06;;;;;;;5.63;5.13;;;18.40;72.60;;;;;;4950293;28;20202;-50
2023/04/10 12:31:35;;;;;;;5.80;5.23;;;18.50;73.60;;;;;;4982122;28;20271;-49
2023/04/10 12:34:04;;;;;;;6.03;5.13;;;18.40;74.60;;;;;;4972249;28;20221;-55
2023/04/10 12:36:33;;;;;;;6.13;4.70;;;18.40;75.10;;;;;;4982646;28;20205;-53
2023/04/10 12:39:01;;;;;;;5.20;4.80;;;18.30;75.90;;;;;;4966048;28;20250;-56
2023/04/10 12:41:30;;;;;;;5.27;4.77;;;18.30;75.30;;;;;;4982797;28;20263;-50
2023/04/10 12:44:09;;;;;;;5.33;4.47;;;18.20;74.10;;;;;;4948740;28;20701;-60
2023/04/10 12:46:39;;;;;;;5.77;5.00;;;18.30;72.90;;;;;;4968125;28;20251;-50
2023/04/10 12:49:11;;;;;;;4.57;4.27;;;18.30;73.50;;;;;;4946868;28;20209;-54
2023/04/10 12:51:45;;;;;;;5.40;5.00;;;18.30;73.80;;;;;;4972183;28;20283;-53
2023/04/10 12:54:27;;;;;;;5.23;4.73;;;18.40;74.60;;;;;;4972279;28;20235;-57
2023/04/10 12:56:55;;;;;;;4.83;4.40;;;18.50;74.10;;;;;;4985362;28;20220;-52
2023/04/10 12:59:23;;;;;;;4.93;4.53;;;18.50;73.00;;;;;;4966389;28;20216;-58
2023/04/10 13:01:50;;;;;;;4.63;4.23;;;18.40;70.80;;;;;;4977847;28;20205;-53